Time;durP1;ratioP1;P1;durP2;ratioP2;P2;SDS_P1;SDS_P2;PMS_P1;PMS_P2;Temp;Humidity;BMP_temperature;BMP_pressure;BME280_temperature;BME280_humidity;BME280_pressure;Samples;Min_cycle;Max_cycle;Signal;HPM_P1;HPM_P2
2022/02/04 00:04:10;;;;;;;25.77;20.03;;;5.60;99.90;;;;;;5059167;28;20633;-96
2022/02/04 00:06:15;;;;;;;29.20;20.23;;;5.60;99.90;;;;;;5057532;28;20193;-95
2022/02/04 00:25:41;;;;;;;24.90;19.20;;;5.60;99.90;;;;;;5058183;28;20249;-96
2022/02/04 00:28:23;;;;;;;23.93;19.03;;;5.60;99.90;;;;;;5056194;28;20230;-94
2022/02/04 00:34:07;;;;;;;26.47;19.90;;;5.70;99.90;;;;;;5058105;28;20890;-94
2022/02/04 00:36:51;;;;;;;27.50;21.00;;;5.70;99.90;;;;;;5056210;28;20194;-94
2022/02/04 00:39:39;;;;;;;27.13;20.60;;;5.60;99.90;;;;;;5057599;28;20200;-95
2022/02/04 00:42:17;;;;;;;27.27;19.27;;;5.70;99.90;;;;;;5055856;28;20185;-95
2022/02/04 00:44:43;;;;;;;27.43;19.90;;;5.70;99.90;;;;;;5057215;28;20165;-94
2022/02/04 00:47:35;;;;;;;24.87;19.30;;;5.70;99.90;;;;;;5055470;28;20583;-95
2022/02/04 00:50:38;;;;;;;29.57;21.23;;;5.60;99.90;;;;;;5056772;28;20257;-94
2022/02/04 00:55:43;;;;;;;24.63;19.10;;;5.60;99.90;;;;;;5057567;28;20657;-95
2022/02/04 01:26:21;;;;;;;32.63;20.47;;;5.60;99.90;;;;;;5058650;28;20236;-94
2022/02/04 01:28:51;;;;;;;29.90;21.23;;;5.60;99.90;;;;;;5017048;28;20214;-96
2022/02/04 01:31:20;;;;;;;29.47;21.00;;;5.60;99.90;;;;;;5018008;28;20217;-94
2022/02/04 01:33:49;;;;;;;27.73;20.77;;;5.70;99.90;;;;;;5018761;28;20163;-96
2022/02/04 01:36:18;;;;;;;28.67;20.27;;;5.70;99.90;;;;;;5021147;28;20278;-94
2022/02/04 01:38:52;;;;;;;29.93;21.63;;;5.60;99.90;;;;;;5022578;28;20206;-95
2022/02/04 01:41:35;;;;;;;30.23;21.10;;;5.70;99.90;;;;;;5022575;28;20206;-95
2022/02/04 01:44:31;;;;;;;32.47;21.40;;;5.60;99.90;;;;;;5021672;28;20170;-95
2022/02/04 01:46:58;;;;;;;28.03;20.47;;;5.70;99.90;;;;;;5021221;28;20167;-94
2022/02/04 01:49:29;;;;;;;29.67;21.63;;;5.70;99.90;;;;;;5021564;28;20183;-95
2022/02/04 01:51:59;;;;;;;29.80;22.27;;;5.70;99.90;;;;;;5021574;28;20167;-95
2022/02/04 01:54:26;;;;;;;31.93;21.73;;;5.70;99.90;;;;;;5019805;28;20258;-96
2022/02/04 01:57:05;;;;;;;29.83;21.60;;;5.60;99.90;;;;;;5019591;28;20168;-94
2022/02/04 01:59:31;;;;;;;30.23;22.03;;;5.60;99.90;;;;;;5020428;28;20163;-94
2022/02/04 02:02:10;;;;;;;30.03;20.03;;;5.70;99.90;;;;;;5020326;28;20166;-95
2022/02/04 02:04:36;;;;;;;31.13;21.10;;;5.60;99.90;;;;;;5020864;28;20175;-94
2022/02/04 02:07:09;;;;;;;29.63;20.73;;;5.70;99.90;;;;;;5020375;28;20532;-95
2022/02/04 02:10:06;;;;;;;31.13;22.47;;;5.60;99.90;;;;;;5022075;28;20191;-94
2022/02/04 02:12:49;;;;;;;29.43;21.37;;;5.70;99.90;;;;;;5024644;28;20203;-96
2022/02/04 02:57:29;;;;;;;36.83;25.43;;;5.40;99.90;;;;;;5059458;28;20182;-95
2022/02/04 02:59:19;;;;;;;35.67;25.13;;;5.50;99.90;;;;;;5047350;28;20699;-94
2022/02/04 03:01:51;;;;;;;33.47;24.00;;;5.50;99.90;;;;;;5057737;28;20249;-94
2022/02/04 03:04:23;;;;;;;33.93;24.63;;;5.50;99.90;;;;;;5057730;28;20170;-94
2022/02/04 03:06:55;;;;;;;38.47;24.97;;;5.50;99.90;;;;;;5057714;28;20253;-96
2022/02/04 03:09:32;;;;;;;35.70;24.83;;;5.50;99.90;;;;;;5057428;28;20178;-95
2022/02/04 03:11:59;;;;;;;36.60;24.80;;;5.40;99.90;;;;;;5058086;28;20220;-93
2022/02/04 03:14:35;;;;;;;36.70;25.27;;;5.50;99.90;;;;;;5058259;28;20158;-94
2022/02/04 03:17:12;;;;;;;33.60;23.63;;;5.40;99.90;;;;;;5059264;28;20165;-95
2022/02/04 03:19:43;;;;;;;36.73;23.57;;;5.50;99.90;;;;;;5057977;28;20186;-95
2022/02/04 03:22:12;;;;;;;35.27;23.70;;;5.50;99.90;;;;;;5058785;28;20173;-94
2022/02/04 03:24:58;;;;;;;37.30;24.70;;;5.50;99.90;;;;;;5057910;28;20208;-94
2022/02/04 03:27:33;;;;;;;37.70;25.10;;;5.50;99.90;;;;;;5057886;28;20265;-95
2022/02/04 03:30:18;;;;;;;35.17;25.07;;;5.50;99.90;;;;;;5058100;28;20175;-94
2022/02/04 03:32:55;;;;;;;36.10;23.67;;;5.50;99.90;;;;;;5058277;28;20169;-94
2022/02/04 03:35:21;;;;;;;38.50;25.53;;;5.50;99.90;;;;;;5058513;28;20205;-96
2022/02/04 03:37:58;;;;;;;34.20;23.57;;;5.50;99.90;;;;;;5057414;28;20268;-94
2022/02/04 03:40:27;;;;;;;30.93;21.77;;;5.60;99.90;;;;;;5058318;28;20194;-94
2022/02/04 03:43:08;;;;;;;33.87;22.73;;;5.60;99.90;;;;;;5057401;28;20177;-95
2022/02/04 03:45:37;;;;;;;30.93;22.20;;;5.60;99.90;;;;;;5059797;28;20166;-95
2022/02/04 03:48:05;;;;;;;32.30;22.13;;;5.60;99.90;;;;;;5057666;28;20205;-95
2022/02/04 03:50:34;;;;;;;30.90;21.83;;;5.50;99.90;;;;;;5057813;28;20323;-96
2022/02/04 03:53:03;;;;;;;30.10;20.50;;;5.60;99.90;;;;;;5057731;28;20234;-94
2022/02/04 03:55:31;;;;;;;34.43;21.93;;;5.60;99.90;;;;;;5057766;28;20186;-96
2022/02/04 03:58:15;;;;;;;29.70;21.47;;;5.60;99.90;;;;;;5056830;28;20225;-94
2022/02/04 04:00:42;;;;;;;30.77;21.40;;;5.60;99.90;;;;;;5057389;28;20636;-95
2022/02/04 04:03:14;;;;;;;26.30;20.27;;;5.60;99.90;;;;;;5057107;28;20166;-96
2022/02/04 04:05:51;;;;;;;28.50;20.47;;;5.70;99.90;;;;;;5057851;28;20170;-95
2022/02/04 04:08:18;;;;;;;31.70;21.43;;;5.70;99.90;;;;;;5058046;28;20204;-95
2022/02/04 04:10:45;;;;;;;27.73;20.57;;;5.70;99.90;;;;;;5057993;28;20178;-95
2022/02/04 04:13:17;;;;;;;29.73;21.27;;;5.60;99.90;;;;;;5057992;28;20162;-94
2022/02/04 04:15:44;;;;;;;32.77;22.30;;;5.70;99.90;;;;;;5057873;28;20244;-96
2022/02/04 04:18:14;;;;;;;30.20;21.87;;;5.70;99.90;;;;;;5057418;28;20343;-94
2022/02/04 04:20:49;;;;;;;30.93;21.63;;;5.70;99.90;;;;;;5057062;28;20185;-95
2022/02/04 04:23:21;;;;;;;29.30;20.50;;;5.70;99.90;;;;;;5057442;28;20158;-94
2022/02/04 04:26:10;;;;;;;32.60;21.20;;;5.70;99.90;;;;;;5057394;28;20170;-95
2022/02/04 04:28:36;;;;;;;28.70;21.23;;;5.70;99.90;;;;;;5056960;28;20287;-95
2022/02/04 04:31:09;;;;;;;27.63;20.73;;;5.70;99.90;;;;;;5057837;28;20166;-96
2022/02/04 04:33:34;;;;;;;31.00;21.77;;;5.70;99.90;;;;;;5057763;28;20170;-95
2022/02/04 04:36:00;;;;;;;28.30;20.80;;;5.70;99.90;;;;;;5057387;28;20724;-94
2022/02/04 04:38:37;;;;;;;29.67;20.37;;;5.70;99.90;;;;;;5056682;28;20201;-94
2022/02/04 05:29:28;;;;;;;26.37;18.07;;;5.80;99.90;;;;;;5058533;28;20225;-96
2022/02/04 05:31:57;;;;;;;27.27;19.53;;;5.80;99.90;;;;;;5056214;28;20174;-96
2022/02/04 05:34:25;;;;;;;25.60;18.80;;;5.70;99.90;;;;;;5057053;28;20170;-95
2022/02/04 05:37:06;;;;;;;24.47;18.27;;;5.70;99.90;;;;;;5057227;28;20248;-96
2022/02/04 05:40:05;;;;;;;25.37;17.97;;;5.70;99.90;;;;;;5057429;28;20174;-94
2022/02/04 05:42:37;;;;;;;26.23;18.07;;;5.70;99.90;;;;;;5057048;28;20192;-93
2022/02/04 05:45:22;;;;;;;28.90;18.77;;;5.70;99.90;;;;;;5057717;28;20185;-94
2022/02/04 05:47:53;;;;;;;24.53;18.00;;;5.60;99.90;;;;;;5056807;28;20288;-94
2022/02/04 05:50:37;;;;;;;25.90;18.07;;;5.60;99.90;;;;;;5056592;28;20645;-94
2022/02/04 05:53:16;;;;;;;26.30;17.73;;;5.60;99.90;;;;;;5056659;28;20272;-93
2022/02/04 06:06:37;;;;;;;25.90;18.10;;;5.60;99.90;;;;;;5057792;28;20158;-95
2022/02/04 06:23:06;;;;;;;21.73;15.80;;;5.70;99.90;;;;;;5035196;28;20193;-94
2022/02/04 06:25:55;;;;;;;21.87;15.87;;;5.70;99.90;;;;;;5057507;28;20174;-96
2022/02/04 06:28:25;;;;;;;22.50;16.00;;;5.70;99.90;;;;;;5057561;28;20787;-94
2022/02/04 06:31:03;;;;;;;22.30;15.67;;;5.70;99.90;;;;;;5058449;28;20180;-93
2022/02/04 06:34:06;;;;;;;19.93;15.37;;;5.70;99.90;;;;;;5056901;28;20702;-95
2022/02/04 06:36:39;;;;;;;19.90;14.80;;;5.70;99.90;;;;;;5057952;28;20247;-94
2022/02/04 06:39:29;;;;;;;20.33;15.50;;;5.80;99.90;;;;;;5058108;28;20201;-94
2022/02/04 06:41:58;;;;;;;21.23;14.80;;;5.80;99.90;;;;;;5057599;28;20166;-93
2022/02/04 06:44:39;;;;;;;20.23;14.50;;;5.80;99.90;;;;;;5057304;28;20174;-93
2022/02/04 06:47:07;;;;;;;19.50;13.57;;;5.80;99.90;;;;;;5058385;28;20177;-93
2022/02/04 06:49:38;;;;;;;19.80;14.60;;;5.80;99.90;;;;;;5057855;28;20177;-92
2022/02/04 06:52:04;;;;;;;18.43;13.60;;;5.80;99.90;;;;;;5058284;28;20166;-93
2022/02/04 06:54:34;;;;;;;22.73;15.60;;;5.80;99.90;;;;;;5058837;28;20169;-93
2022/02/04 06:56:59;;;;;;;21.00;14.93;;;5.80;99.90;;;;;;5057565;28;20170;-95
2022/02/04 06:59:42;;;;;;;19.73;14.13;;;5.80;99.90;;;;;;5057772;28;20675;-93
2022/02/04 07:02:38;;;;;;;18.37;13.93;;;5.80;99.90;;;;;;5057466;28;20173;-93
2022/02/04 07:05:13;;;;;;;17.10;12.67;;;5.90;99.90;;;;;;5057581;28;20206;-94
2022/02/04 07:07:49;;;;;;;21.10;14.53;;;5.90;99.90;;;;;;5057440;28;20229;-93
2022/02/04 07:10:31;;;;;;;18.87;14.00;;;5.90;99.90;;;;;;5057212;28;20173;-94
2022/02/04 07:13:42;;;;;;;18.40;13.10;;;5.90;99.90;;;;;;5057095;28;20186;-93
2022/02/04 07:21:34;;;;;;;17.43;12.67;;;5.90;99.90;;;;;;5058505;28;20196;-92
2022/02/04 07:24:01;;;;;;;19.07;12.23;;;5.90;99.90;;;;;;5057160;28;20196;-94
2022/02/04 07:26:30;;;;;;;16.80;12.00;;;5.90;99.90;;;;;;5056686;28;20261;-93
2022/02/04 07:28:57;;;;;;;16.77;12.07;;;5.90;99.90;;;;;;5057330;28;20281;-95
2022/02/04 07:31:49;;;;;;;16.10;11.77;;;5.90;99.90;;;;;;5056701;28;20192;-94
2022/02/04 07:34:25;;;;;;;16.50;11.97;;;5.90;99.90;;;;;;5056953;28;20182;-94
2022/02/04 07:42:21;;;;;;;17.43;12.23;;;6.00;99.90;;;;;;5058092;28;20208;-93
2022/02/04 07:44:48;;;;;;;16.93;11.47;;;6.00;99.90;;;;;;5057054;28;20622;-95
2022/02/04 07:47:32;;;;;;;14.03;10.93;;;6.00;99.90;;;;;;5056981;28;20220;-93
2022/02/04 07:50:21;;;;;;;14.47;10.70;;;6.10;99.90;;;;;;5056963;28;20166;-94
2022/02/04 07:52:51;;;;;;;14.70;10.77;;;6.10;99.90;;;;;;5056477;28;20248;-92
2022/02/04 07:55:21;;;;;;;14.97;11.30;;;6.10;99.90;;;;;;5056523;28;20205;-95
2022/02/04 07:57:48;;;;;;;14.70;10.20;;;6.10;99.90;;;;;;5056070;28;20197;-93
2022/02/04 08:00:22;;;;;;;12.77;10.03;;;6.20;99.90;;;;;;5056889;28;20216;-95
2022/02/04 08:03:06;;;;;;;11.63;9.13;;;6.20;99.90;;;;;;5055982;28;20166;-94
2022/02/04 08:05:32;;;;;;;12.70;9.53;;;6.30;99.90;;;;;;5054665;28;20311;-95
2022/02/04 08:08:13;;;;;;;9.70;7.77;;;6.30;99.90;;;;;;5056178;28;20206;-94
2022/02/04 08:10:48;;;;;;;11.30;8.27;;;6.30;99.90;;;;;;5055597;28;20193;-94
2022/02/04 08:59:33;;;;;;;10.33;8.13;;;6.50;99.90;;;;;;5041867;28;20269;-92
2022/02/04 09:02:10;;;;;;;11.33;7.90;;;6.50;99.90;;;;;;5055182;28;20219;-93
2022/02/04 09:11:06;;;;;;;9.43;7.67;;;6.60;99.90;;;;;;5056244;28;20208;-94
2022/02/04 09:19:19;;;;;;;8.37;7.00;;;6.60;99.90;;;;;;5055262;28;20197;-94
2022/02/04 09:24:37;;;;;;;11.27;7.37;;;6.70;99.90;;;;;;5024628;28;20182;-92
2022/02/04 09:27:10;;;;;;;9.27;7.23;;;6.70;99.90;;;;;;5052241;28;20224;-93
2022/02/04 09:29:43;;;;;;;9.10;7.20;;;6.70;99.90;;;;;;5054544;28;20630;-93
2022/02/04 09:32:18;;;;;;;9.37;7.53;;;6.80;99.90;;;;;;5054067;28;20223;-94
2022/02/04 09:34:46;;;;;;;7.97;6.37;;;6.90;99.90;;;;;;5053576;28;20174;-93
2022/02/04 09:37:12;;;;;;;8.37;6.87;;;6.90;99.90;;;;;;5053946;28;20649;-92
2022/02/04 09:40:02;;;;;;;7.77;6.47;;;6.90;99.90;;;;;;5053658;28;20180;-94
2022/02/04 09:42:32;;;;;;;9.93;6.83;;;6.90;99.90;;;;;;5053561;28;20648;-93
2022/02/04 09:45:03;;;;;;;7.57;6.30;;;6.90;99.90;;;;;;5053640;28;20242;-92
2022/02/04 09:47:42;;;;;;;8.30;7.03;;;6.90;99.90;;;;;;5053666;28;20202;-93
2022/02/04 09:50:15;;;;;;;9.43;6.97;;;7.00;99.90;;;;;;5053659;28;20245;-93
2022/02/04 10:05:29;;;;;;;7.90;6.73;;;7.00;99.90;;;;;;5059040;28;20170;-91
2022/02/04 10:08:27;;;;;;;8.87;7.20;;;7.10;99.90;;;;;;5057408;28;20209;-93
2022/02/04 10:12:07;;;;;;;9.40;7.07;;;7.00;99.90;;;;;;5058139;28;20182;-92
2022/02/04 10:17:28;;;;;;;8.60;7.07;;;7.00;99.90;;;;;;5058400;28;20237;-94
2022/02/04 10:20:35;;;;;;;8.27;6.83;;;7.00;99.90;;;;;;5057069;28;20177;-94
2022/02/04 10:23:16;;;;;;;7.77;6.50;;;7.00;99.90;;;;;;5058152;28;20174;-92
2022/02/04 10:26:07;;;;;;;9.13;6.50;;;7.00;99.90;;;;;;5057338;28;20235;-92
2022/02/04 10:28:39;;;;;;;8.80;5.83;;;7.00;99.90;;;;;;5052970;28;20221;-92
2022/02/04 10:31:24;;;;;;;7.07;6.00;;;7.00;99.90;;;;;;5057084;28;20178;-91
2022/02/04 10:34:07;;;;;;;7.60;6.30;;;7.00;99.90;;;;;;5057011;28;20260;-92
2022/02/04 10:39:52;;;;;;;6.47;5.47;;;7.00;99.90;;;;;;5058307;28;20190;-91
2022/02/04 10:42:39;;;;;;;8.20;6.00;;;7.00;99.90;;;;;;5056676;28;20248;-92
2022/02/04 11:00:02;;;;;;;7.40;5.37;;;7.30;99.90;;;;;;5057972;28;20208;-91
2022/02/04 11:03:05;;;;;;;8.47;5.60;;;7.30;99.90;;;;;;5056565;28;20531;-92
2022/02/04 11:05:46;;;;;;;7.07;6.03;;;7.30;99.90;;;;;;5056222;28;20182;-93
2022/02/04 11:08:51;;;;;;;7.10;6.00;;;7.40;99.90;;;;;;5054136;28;20210;-93
2022/02/04 11:21:59;;;;;;;7.27;6.03;;;7.50;99.90;;;;;;5057446;28;20200;-92
2022/02/04 11:47:53;;;;;;;6.03;5.20;;;7.70;99.90;;;;;;5057444;28;20288;-92
2022/02/04 11:52:52;;;;;;;7.33;5.23;;;7.60;99.90;;;;;;5057431;28;20158;-93
2022/02/04 11:55:45;;;;;;;6.10;5.37;;;7.60;99.90;;;;;;5056262;28;20206;-93
2022/02/04 11:58:12;;;;;;;6.50;5.37;;;7.50;99.90;;;;;;5056796;28;20194;-94
2022/02/04 12:00:46;;;;;;;6.83;4.73;;;7.50;99.90;;;;;;5055865;28;20245;-93
2022/02/04 12:03:38;;;;;;;6.43;4.73;;;7.40;99.90;;;;;;5056389;28;20724;-94
2022/02/04 12:06:05;;;;;;;5.30;4.50;;;7.40;99.90;;;;;;5055229;28;20170;-93
2022/02/04 12:08:43;;;;;;;5.17;4.67;;;7.40;99.90;;;;;;5055580;28;20408;-95
2022/02/04 12:11:47;;;;;;;6.97;4.43;;;7.40;99.90;;;;;;5055393;28;20193;-92
2022/02/04 12:14:29;;;;;;;6.67;4.30;;;7.40;99.90;;;;;;5057247;28;20189;-93
2022/02/04 12:17:16;;;;;;;5.33;4.03;;;7.40;99.90;;;;;;5055531;28;20243;-95
2022/02/04 12:19:52;;;;;;;6.80;3.93;;;7.40;99.90;;;;;;5054765;28;20173;-94
2022/02/04 12:22:55;;;;;;;4.17;3.47;;;7.40;99.90;;;;;;5055543;28;20185;-94
2022/02/04 12:29:02;;;;;;;4.17;3.70;;;7.40;99.90;;;;;;5055650;28;20233;-94
2022/02/04 12:31:50;;;;;;;3.87;2.97;;;7.50;99.90;;;;;;5055418;28;20173;-92
2022/02/04 12:36:58;;;;;;;3.47;2.90;;;7.50;99.90;;;;;;5056530;28;20200;-94
2022/02/04 12:39:36;;;;;;;3.20;2.53;;;7.50;99.90;;;;;;5055744;28;20184;-94
2022/02/04 12:42:04;;;;;;;3.40;2.77;;;7.50;99.90;;;;;;5054969;28;20170;-93
2022/02/04 12:44:38;;;;;;;3.37;2.60;;;7.50;99.90;;;;;;5057035;28;20162;-94
2022/02/04 12:47:20;;;;;;;3.27;2.80;;;7.60;99.90;;;;;;5056515;28;20248;-93
2022/02/04 12:49:49;;;;;;;2.87;2.33;;;7.60;99.90;;;;;;5056778;28;20176;-94
2022/02/04 12:52:30;;;;;;;3.30;2.50;;;7.50;99.90;;;;;;5057112;28;20166;-93
2022/02/04 12:55:08;;;;;;;2.57;2.10;;;7.50;99.90;;;;;;5057194;28;20174;-93
2022/02/04 12:57:55;;;;;;;3.30;2.40;;;7.50;99.90;;;;;;5056857;28;20715;-93
2022/02/04 13:08:52;;;;;;;1.97;1.70;;;7.40;99.90;;;;;;5058238;28;20216;-94
2022/02/04 13:11:20;;;;;;;1.87;1.67;;;7.50;99.90;;;;;;5056608;28;20257;-93
2022/02/04 13:13:50;;;;;;;2.10;1.70;;;7.50;99.90;;;;;;5056394;28;20304;-94
2022/02/04 13:16:26;;;;;;;7.33;1.77;;;7.50;99.90;;;;;;5057018;28;20251;-95
2022/02/04 13:19:06;;;;;;;3.20;1.80;;;7.60;99.90;;;;;;5056208;28;20207;-94
2022/02/04 13:21:33;;;;;;;1.50;1.40;;;7.60;99.90;;;;;;5057061;28;20169;-95
2022/02/04 13:24:08;;;;;;;2.00;1.30;;;7.70;99.90;;;;;;5057408;28;20166;-93
2022/02/04 13:26:38;;;;;;;2.00;1.70;;;7.70;99.90;;;;;;5056632;28;20180;-92
2022/02/04 13:29:08;;;;;;;3.17;1.60;;;7.60;99.90;;;;;;5055286;28;20233;-93
2022/02/04 13:31:37;;;;;;;2.70;1.50;;;7.70;99.90;;;;;;5055756;28;20660;-93
2022/02/04 13:34:13;;;;;;;2.27;1.30;;;7.80;99.90;;;;;;5056372;28;20181;-93
2022/02/04 13:36:55;;;;;;;1.30;1.00;;;7.80;99.90;;;;;;5056166;28;20293;-94
2022/02/04 13:42:39;;;;;;;2.37;1.60;;;7.90;99.90;;;;;;5058182;28;20632;-92
2022/02/04 13:45:45;;;;;;;1.20;0.70;;;7.90;99.90;;;;;;5047339;28;20189;-93
2022/02/04 13:48:26;;;;;;;1.30;0.90;;;7.90;99.90;;;;;;5059320;28;20209;-95
2022/02/04 13:51:36;;;;;;;1.23;1.00;;;7.80;99.90;;;;;;5056201;28;20192;-93
2022/02/04 13:54:34;;;;;;;1.37;1.00;;;7.80;99.90;;;;;;5049788;28;20236;-94
2022/02/04 13:57:36;;;;;;;1.33;1.00;;;7.80;99.90;;;;;;5057535;28;20189;-93
2022/02/04 14:03:24;;;;;;;1.50;0.80;;;7.80;99.90;;;;;;5057856;28;20177;-94
2022/02/04 14:06:11;;;;;;;2.03;0.90;;;7.80;99.90;;;;;;5056536;28;20204;-95
2022/02/04 14:09:07;;;;;;;1.00;0.80;;;7.80;99.90;;;;;;5055184;28;20233;-94
2022/02/04 14:11:43;;;;;;;1.27;1.00;;;7.80;99.90;;;;;;5055328;28;20192;-93
2022/02/04 14:14:30;;;;;;;0.93;0.83;;;7.80;99.90;;;;;;5055924;28;20178;-93
2022/02/04 14:17:03;;;;;;;1.47;0.90;;;7.70;99.90;;;;;;5055853;28;20217;-95
2022/02/04 14:19:44;;;;;;;1.20;0.90;;;7.70;99.90;;;;;;5055044;28;20186;-95
2022/02/04 14:22:18;;;;;;;1.00;0.70;;;7.70;99.90;;;;;;5055986;28;20237;-95
2022/02/04 14:24:50;;;;;;;1.10;1.00;;;7.70;99.90;;;;;;5055936;28;20264;-94
2022/02/04 14:27:17;;;;;;;1.70;0.90;;;7.70;99.90;;;;;;5055895;28;20748;-94
2022/02/04 14:30:01;;;;;;;2.30;1.43;;;7.70;99.90;;;;;;5055405;28;20222;-93
2022/02/04 14:32:39;;;;;;;1.77;0.93;;;7.70;99.90;;;;;;5057732;28;20170;-94
2022/02/04 14:35:40;;;;;;;0.90;0.77;;;7.70;99.90;;;;;;5056456;28;20238;-94
2022/02/04 15:00:44;;;;;;;0.60;0.60;;;7.60;99.90;;;;;;5059545;28;20257;-93
2022/02/04 15:03:17;;;;;;;0.73;0.60;;;7.70;99.90;;;;;;5056983;28;20272;-95
2022/02/04 15:06:01;;;;;;;0.83;0.60;;;7.60;99.90;;;;;;5058459;28;20166;-95
2022/02/04 15:08:31;;;;;;;0.60;0.50;;;7.70;99.90;;;;;;5057463;28;20740;-95
2022/02/04 15:11:03;;;;;;;0.50;0.50;;;7.70;99.90;;;;;;5058200;28;20233;-95
2022/02/04 15:13:31;;;;;;;1.40;0.70;;;7.70;99.90;;;;;;5058190;28;20186;-95
2022/02/04 15:16:02;;;;;;;0.50;0.50;;;7.70;99.90;;;;;;5058266;28;20202;-92
2022/02/04 15:18:43;;;;;;;0.70;0.70;;;7.70;99.90;;;;;;5057517;28;20696;-93
2022/02/04 15:21:15;;;;;;;2.10;0.70;;;7.60;99.90;;;;;;5057947;28;20184;-95
2022/02/04 15:24:18;;;;;;;1.13;0.87;;;7.60;99.90;;;;;;5058043;28;20184;-93
2022/02/04 15:26:50;;;;;;;1.10;0.60;;;7.60;99.90;;;;;;5057831;28;20180;-95
2022/02/04 15:29:18;;;;;;;1.27;0.80;;;7.50;99.90;;;;;;5057691;28;20230;-94
2022/02/04 15:31:54;;;;;;;1.80;0.80;;;7.50;99.90;;;;;;5057989;28;20181;-95
2022/02/04 15:34:23;;;;;;;1.50;0.80;;;7.40;99.90;;;;;;5058522;28;20209;-93
2022/02/04 15:36:50;;;;;;;0.67;0.67;;;7.40;99.90;;;;;;5058126;28;20208;-95
2022/02/04 15:39:23;;;;;;;1.57;0.90;;;7.30;99.90;;;;;;5057413;28;20204;-94
2022/02/04 15:42:09;;;;;;;1.20;0.90;;;7.30;99.90;;;;;;5057761;28;20163;-93
2022/02/04 16:05:00;;;;;;;1.10;0.83;;;7.20;99.90;;;;;;5058163;28;20264;-95
2022/02/04 16:07:40;;;;;;;0.80;0.70;;;7.20;99.90;;;;;;5055841;28;20220;-94
2022/02/04 16:12:55;;;;;;;0.70;0.50;;;7.10;99.90;;;;;;5058286;28;20161;-93
2022/02/04 16:15:46;;;;;;;1.00;0.70;;;7.00;99.90;;;;;;5056194;28;20573;-94
2022/02/04 16:18:19;;;;;;;1.30;0.80;;;6.90;99.90;;;;;;5056761;28;20323;-93
2022/02/04 16:29:45;;;;;;;1.63;1.00;;;6.90;99.90;;;;;;5058559;28;20257;-95
2022/02/04 16:32:13;;;;;;;1.23;1.13;;;6.90;99.90;;;;;;5056872;28;20664;-95
2022/02/04 16:34:55;;;;;;;1.50;0.87;;;6.80;99.90;;;;;;5057583;28;20194;-95
2022/02/04 16:37:38;;;;;;;1.83;1.10;;;6.80;99.90;;;;;;5059260;28;20248;-95
2022/02/04 16:40:22;;;;;;;1.30;1.00;;;6.80;99.90;;;;;;5056228;28;20177;-94
2022/02/04 16:42:55;;;;;;;2.63;0.93;;;6.80;99.90;;;;;;5056105;28;20174;-94
2022/02/04 16:45:39;;;;;;;1.77;1.10;;;6.70;99.90;;;;;;5055469;28;20166;-94
2022/02/04 16:48:13;;;;;;;1.90;1.10;;;6.70;99.90;;;;;;5055626;28;20719;-94
2022/02/04 16:50:51;;;;;;;1.47;0.97;;;6.70;99.90;;;;;;5055229;28;20197;-94
2022/02/04 16:53:20;;;;;;;1.20;1.00;;;6.70;99.90;;;;;;5055632;28;20165;-94
2022/02/04 16:55:50;;;;;;;1.50;0.93;;;6.70;99.90;;;;;;5056265;28;20219;-94
2022/02/04 16:58:16;;;;;;;1.30;1.00;;;6.70;99.90;;;;;;5055954;28;20557;-93
2022/02/04 17:00:58;;;;;;;0.80;0.80;;;6.70;99.90;;;;;;5055447;28;20174;-94
2022/02/04 17:03:26;;;;;;;1.00;0.80;;;6.70;99.90;;;;;;5055204;28;20178;-93
2022/02/04 17:05:59;;;;;;;1.07;0.90;;;6.70;99.90;;;;;;5054813;28;20166;-93
2022/02/04 17:12:00;;;;;;;6.97;1.07;;;6.70;99.90;;;;;;4994181;28;20270;-95
2022/02/04 17:14:45;;;;;;;1.27;0.90;;;6.70;99.90;;;;;;5046285;28;20201;-95
2022/02/04 17:17:11;;;;;;;0.87;0.83;;;6.70;99.90;;;;;;5054298;28;20280;-94
2022/02/04 17:19:49;;;;;;;0.90;0.70;;;6.80;99.90;;;;;;5054593;28;20204;-94
2022/02/04 17:22:20;;;;;;;1.53;0.80;;;6.80;99.90;;;;;;5054463;28;20193;-94
2022/02/04 17:24:48;;;;;;;2.40;0.90;;;6.80;99.90;;;;;;5054580;28;20260;-95
2022/02/04 17:27:15;;;;;;;1.13;0.80;;;6.80;99.90;;;;;;5054597;28;20625;-96
2022/02/04 17:29:43;;;;;;;1.63;1.20;;;6.80;99.90;;;;;;5053687;28;20324;-96
2022/02/04 17:32:09;;;;;;;1.77;1.20;;;6.80;99.90;;;;;;5054215;28;20185;-94
2022/02/04 17:34:45;;;;;;;1.93;1.20;;;6.70;99.90;;;;;;5053864;28;20169;-94
2022/02/04 17:37:18;;;;;;;1.80;1.10;;;6.70;99.90;;;;;;5053297;28;20229;-94
2022/02/04 17:39:44;;;;;;;1.20;1.10;;;6.70;99.90;;;;;;5055794;28;20178;-95
2022/02/04 17:42:10;;;;;;;1.43;1.00;;;6.70;99.90;;;;;;5056845;28;20162;-95
2022/02/04 17:44:40;;;;;;;1.37;0.83;;;6.80;99.90;;;;;;5054818;28;20626;-95
2022/02/04 17:47:16;;;;;;;1.23;0.87;;;6.80;99.90;;;;;;5054930;28;20256;-94
2022/02/04 17:52:42;;;;;;;1.70;1.00;;;6.80;99.90;;;;;;5056463;28;20208;-95
2022/02/04 17:55:27;;;;;;;0.93;0.70;;;6.80;99.90;;;;;;5055303;28;20172;-94
2022/02/04 17:57:57;;;;;;;1.00;0.90;;;6.80;99.90;;;;;;5051573;28;20755;-94
2022/02/04 18:01:01;;;;;;;1.20;0.97;;;6.70;99.90;;;;;;5057200;28;20188;-95
2022/02/04 18:03:36;;;;;;;2.57;1.00;;;6.80;99.90;;;;;;5055643;28;20193;-94
2022/02/04 18:09:15;;;;;;;2.03;1.00;;;6.70;99.90;;;;;;5055763;28;20190;-95
2022/02/04 18:11:42;;;;;;;3.20;1.00;;;6.70;99.90;;;;;;5055087;28;20165;-93
2022/02/04 18:14:08;;;;;;;2.23;1.03;;;6.70;99.90;;;;;;5055094;28;20257;-94
2022/02/04 18:16:34;;;;;;;1.90;1.07;;;6.70;99.90;;;;;;5056749;28;20303;-93
2022/02/04 18:19:00;;;;;;;1.63;1.10;;;6.70;99.90;;;;;;5058715;28;20217;-94
2022/02/04 18:21:27;;;;;;;1.30;0.90;;;6.70;99.90;;;;;;5058747;28;20170;-95
2022/02/04 18:24:03;;;;;;;4.00;0.93;;;6.60;99.90;;;;;;5058424;28;20238;-95
2022/02/04 18:26:35;;;;;;;2.30;1.10;;;6.60;99.90;;;;;;5058327;28;20170;-94
2022/02/04 18:29:07;;;;;;;2.13;1.30;;;6.60;99.90;;;;;;5057224;28;20295;-94
2022/02/04 18:31:36;;;;;;;1.60;1.07;;;6.60;99.90;;;;;;5056754;28;20178;-93
2022/02/04 18:34:24;;;;;;;2.07;1.17;;;6.60;99.90;;;;;;5058500;28;20200;-93
2022/02/04 18:36:59;;;;;;;3.73;1.10;;;6.60;99.90;;;;;;5057399;28;20194;-92
2022/02/04 18:40:08;;;;;;;3.53;1.50;;;6.50;99.90;;;;;;5056125;28;20185;-93
2022/02/04 18:45:55;;;;;;;2.53;1.13;;;6.50;99.90;;;;;;5058768;28;20169;-92
2022/02/04 18:48:26;;;;;;;1.60;1.00;;;6.50;99.90;;;;;;5056662;28;20201;-94
2022/02/04 18:53:37;;;;;;;1.60;1.00;;;6.40;99.90;;;;;;5060952;28;20162;-95
2022/02/04 18:59:09;;;;;;;2.30;1.00;;;6.40;99.90;;;;;;5060301;28;20224;-93
2022/02/04 19:01:35;;;;;;;4.13;1.17;;;6.40;99.90;;;;;;5058165;28;20223;-93
2022/02/04 19:04:38;;;;;;;1.57;0.90;;;6.40;99.90;;;;;;5057679;28;20688;-94
2022/02/04 19:07:20;;;;;;;1.50;0.80;;;6.40;99.90;;;;;;5059256;28;20224;-93
2022/02/04 19:09:57;;;;;;;3.33;1.00;;;6.30;99.90;;;;;;5056923;28;20209;-93
2022/02/04 19:12:31;;;;;;;3.73;1.10;;;6.40;99.90;;;;;;5058818;28;20261;-93
2022/02/04 19:18:03;;;;;;;3.43;0.93;;;6.40;99.90;;;;;;5060403;28;20192;-94
2022/02/04 19:23:02;;;;;;;2.77;1.20;;;6.30;99.90;;;;;;5059394;28;20524;-95
2022/02/04 19:25:41;;;;;;;6.37;1.20;;;6.30;99.90;;;;;;5058859;28;20178;-93
2022/02/04 19:28:22;;;;;;;1.93;0.70;;;6.30;99.90;;;;;;5056694;28;20204;-93
2022/02/04 19:31:24;;;;;;;1.87;0.70;;;6.10;99.90;;;;;;5056495;28;20268;-93
2022/02/04 19:33:52;;;;;;;0.60;0.60;;;5.40;99.90;;;;;;5055882;28;20181;-92
2022/02/04 19:36:18;;;;;;;0.70;0.63;;;4.80;99.90;;;;;;5055725;28;20201;-93
2022/02/04 19:39:04;;;;;;;3.70;0.60;;;4.50;99.90;;;;;;5055384;28;20197;-94
2022/02/04 19:41:35;;;;;;;1.13;0.67;;;4.30;99.90;;;;;;5055248;28;20166;-93
2022/02/04 19:44:04;;;;;;;0.53;0.50;;;4.20;99.90;;;;;;5055410;28;20253;-94
2022/02/04 19:46:36;;;;;;;1.80;0.40;;;4.10;99.90;;;;;;5054887;28;20166;-93
2022/02/04 19:49:19;;;;;;;0.87;0.67;;;4.00;99.90;;;;;;5054595;28;20209;-92
2022/02/04 19:51:57;;;;;;;1.80;1.00;;;4.00;99.90;;;;;;5052972;28;20185;-91
2022/02/04 19:55:04;;;;;;;1.20;0.77;;;4.00;99.90;;;;;;5055219;28;20173;-93
2022/02/04 20:24:36;;;;;;;1.37;1.00;;;3.40;99.90;;;;;;5055762;28;20216;-93
2022/02/04 20:26:56;;;;;;;1.33;1.10;;;3.30;99.90;;;;;;5055359;28;20649;-92
2022/02/04 20:29:30;;;;;;;1.10;1.00;;;3.40;99.90;;;;;;5051650;28;20282;-93
2022/02/04 20:31:58;;;;;;;1.30;1.00;;;3.40;99.90;;;;;;5054513;28;20260;-92
2022/02/04 20:34:58;;;;;;;1.60;1.30;;;3.40;99.90;;;;;;5054632;28;20618;-92
2022/02/04 20:37:23;;;;;;;1.30;0.90;;;3.40;99.90;;;;;;5054482;28;20236;-93
2022/02/04 20:42:37;;;;;;;1.13;1.03;;;3.40;99.90;;;;;;5055614;28;20656;-92
2022/02/04 20:45:04;;;;;;;1.13;0.97;;;3.40;99.90;;;;;;5054457;28;20166;-92
2022/02/04 20:47:57;;;;;;;1.67;1.07;;;3.40;99.90;;;;;;5054314;28;20204;-93
2022/02/04 20:50:28;;;;;;;0.93;0.90;;;3.40;99.90;;;;;;5054279;28;20166;-92
2022/02/04 20:53:00;;;;;;;1.10;1.00;;;3.40;99.90;;;;;;5054290;28;20618;-93
2022/02/04 20:55:26;;;;;;;1.30;1.20;;;3.40;99.90;;;;;;5054326;28;20205;-93
2022/02/04 20:58:11;;;;;;;1.80;1.50;;;3.40;99.90;;;;;;5054061;28;20291;-93